sensor_id;sensor_type;location;lat;lon;timestamp;pressure;altitude;pressure_sealevel;temperature;humidity
66742;BME280;53654;54.152;19.432;2023-03-01T00:01:36;102838.05;;;1.17;67.66
66742;BME280;53654;54.152;19.432;2023-03-01T00:04:04;102836.66;;;1.17;67.80
66742;BME280;53654;54.152;19.432;2023-03-01T00:06:32;102830.42;;;1.16;67.96
66742;BME280;53654;54.152;19.432;2023-03-01T00:09:00;102824.21;;;1.16;68.18
66742;BME280;53654;54.152;19.432;2023-03-01T00:11:31;102821.44;;;1.16;68.09
66742;BME280;53654;54.152;19.432;2023-03-01T00:14:00;102819.89;;;1.16;68.09
66742;BME280;53654;54.152;19.432;2023-03-01T00:16:34;102822.92;;;1.15;68.04
66742;BME280;53654;54.152;19.432;2023-03-01T00:19:02;102820.48;;;1.14;68.43
66742;BME280;53654;54.152;19.432;2023-03-01T00:21:31;102821.52;;;1.14;68.44
66742;BME280;53654;54.152;19.432;2023-03-01T00:23:59;102827.02;;;1.11;68.24
66742;BME280;53654;54.152;19.432;2023-03-01T00:26:28;102830.96;;;1.08;68.32
66742;BME280;53654;54.152;19.432;2023-03-01T00:28:58;102834.39;;;1.06;68.49
66742;BME280;53654;54.152;19.432;2023-03-01T00:31:29;102833.30;;;1.05;68.77
66742;BME280;53654;54.152;19.432;2023-03-01T00:34:00;102832.89;;;1.04;68.75
66742;BME280;53654;54.152;19.432;2023-03-01T00:36:32;102838.19;;;1.03;68.93
66742;BME280;53654;54.152;19.432;2023-03-01T00:39:03;102841.04;;;1.02;68.72
66742;BME280;53654;54.152;19.432;2023-03-01T00:41:32;102833.23;;;1.01;68.78
66742;BME280;53654;54.152;19.432;2023-03-01T00:44:02;102831.24;;;1.00;68.95
66742;BME280;53654;54.152;19.432;2023-03-01T00:46:31;102826.17;;;0.98;69.13
66742;BME280;53654;54.152;19.432;2023-03-01T00:48:59;102820.70;;;0.95;69.17
66742;BME280;53654;54.152;19.432;2023-03-01T00:51:30;102826.75;;;0.93;69.18
66742;BME280;53654;54.152;19.432;2023-03-01T00:54:00;102835.06;;;0.92;69.48
66742;BME280;53654;54.152;19.432;2023-03-01T00:56:29;102831.36;;;0.90;69.53
66742;BME280;53654;54.152;19.432;2023-03-01T00:58:58;102831.05;;;0.88;69.66
66742;BME280;53654;54.152;19.432;2023-03-01T01:01:28;102837.86;;;0.87;69.70
66742;BME280;53654;54.152;19.432;2023-03-01T01:04:15;102839.16;;;0.86;69.62
66742;BME280;53654;54.152;19.432;2023-03-01T01:06:45;102831.90;;;0.82;69.79
66742;BME280;53654;54.152;19.432;2023-03-01T01:09:16;102829.84;;;0.82;69.83
66742;BME280;53654;54.152;19.432;2023-03-01T01:11:47;102826.74;;;0.83;70.00
66742;BME280;53654;54.152;19.432;2023-03-01T01:14:17;102833.05;;;0.82;70.04
66742;BME280;53654;54.152;19.432;2023-03-01T01:16:45;102830.66;;;0.82;70.13
66742;BME280;53654;54.152;19.432;2023-03-01T01:19:14;102831.77;;;0.83;70.23
66742;BME280;53654;54.152;19.432;2023-03-01T01:21:43;102827.77;;;0.83;70.19
66742;BME280;53654;54.152;19.432;2023-03-01T01:24:11;102823.45;;;0.82;69.91
66742;BME280;53654;54.152;19.432;2023-03-01T01:26:40;102814.14;;;0.81;69.93
66742;BME280;53654;54.152;19.432;2023-03-01T01:29:09;102815.23;;;0.80;70.07
66742;BME280;53654;54.152;19.432;2023-03-01T01:31:38;102815.20;;;0.77;70.29
66742;BME280;53654;54.152;19.432;2023-03-01T01:34:09;102815.93;;;0.75;70.35
66742;BME280;53654;54.152;19.432;2023-03-01T01:36:40;102815.49;;;0.74;70.38
66742;BME280;53654;54.152;19.432;2023-03-01T01:39:09;102812.21;;;0.73;70.69
66742;BME280;53654;54.152;19.432;2023-03-01T01:41:41;102808.44;;;0.73;70.76
66742;BME280;53654;54.152;19.432;2023-03-01T01:46:45;102803.39;;;0.72;70.60
66742;BME280;53654;54.152;19.432;2023-03-01T01:51:48;102797.45;;;0.71;70.70
66742;BME280;53654;54.152;19.432;2023-03-01T01:54:27;102794.90;;;0.71;70.81
66742;BME280;53654;54.152;19.432;2023-03-01T01:57:01;102795.75;;;0.71;70.75
66742;BME280;53654;54.152;19.432;2023-03-01T01:59:32;102791.11;;;0.71;70.71
66742;BME280;53654;54.152;19.432;2023-03-01T02:02:03;102795.42;;;0.71;70.73
66742;BME280;53654;54.152;19.432;2023-03-01T02:04:32;102796.31;;;0.72;70.79
66742;BME280;53654;54.152;19.432;2023-03-01T02:07:13;102794.49;;;0.73;70.60
66742;BME280;53654;54.152;19.432;2023-03-01T02:09:47;102791.79;;;0.71;70.44
66742;BME280;53654;54.152;19.432;2023-03-01T02:12:18;102793.09;;;0.70;70.52
66742;BME280;53654;54.152;19.432;2023-03-01T02:14:47;102793.23;;;0.69;70.66
66742;BME280;53654;54.152;19.432;2023-03-01T02:17:17;102796.05;;;0.70;70.52
66742;BME280;53654;54.152;19.432;2023-03-01T02:22:37;102790.64;;;0.71;70.72
66742;BME280;53654;54.152;19.432;2023-03-01T02:25:28;102781.21;;;0.75;70.62
66742;BME280;53654;54.152;19.432;2023-03-01T02:30:35;102768.25;;;0.79;70.51
66742;BME280;53654;54.152;19.432;2023-03-01T02:33:04;102763.95;;;0.81;70.64
66742;BME280;53654;54.152;19.432;2023-03-01T02:35:38;102763.44;;;0.84;70.55
66742;BME280;53654;54.152;19.432;2023-03-01T02:38:07;102769.37;;;0.85;70.57
66742;BME280;53654;54.152;19.432;2023-03-01T02:40:37;102766.67;;;0.86;70.45
66742;BME280;53654;54.152;19.432;2023-03-01T02:43:10;102766.52;;;0.87;70.47
66742;BME280;53654;54.152;19.432;2023-03-01T02:45:48;102764.77;;;0.86;70.49
66742;BME280;53654;54.152;19.432;2023-03-01T02:48:18;102759.92;;;0.83;70.51
66742;BME280;53654;54.152;19.432;2023-03-01T02:51:01;102756.36;;;0.81;70.58
66742;BME280;53654;54.152;19.432;2023-03-01T02:56:37;102751.11;;;0.71;70.74
66742;BME280;53654;54.152;19.432;2023-03-01T02:59:06;102752.44;;;0.71;70.74
66742;BME280;53654;54.152;19.432;2023-03-01T03:01:35;102745.48;;;0.69;71.00
66742;BME280;53654;54.152;19.432;2023-03-01T03:04:14;102744.38;;;0.71;71.00
66742;BME280;53654;54.152;19.432;2023-03-01T03:06:49;102739.35;;;0.73;70.95
66742;BME280;53654;54.152;19.432;2023-03-01T03:09:18;102738.58;;;0.77;70.94
66742;BME280;53654;54.152;19.432;2023-03-01T03:11:46;102743.98;;;0.81;71.00
66742;BME280;53654;54.152;19.432;2023-03-01T03:14:16;102748.38;;;0.82;70.96
66742;BME280;53654;54.152;19.432;2023-03-01T03:16:49;102749.83;;;0.83;70.92
66742;BME280;53654;54.152;19.432;2023-03-01T03:19:18;102744.55;;;0.81;70.68
66742;BME280;53654;54.152;19.432;2023-03-01T03:21:46;102741.23;;;0.80;70.85
66742;BME280;53654;54.152;19.432;2023-03-01T03:24:15;102736.65;;;0.79;70.90
66742;BME280;53654;54.152;19.432;2023-03-01T03:26:43;102733.73;;;0.79;71.02
66742;BME280;53654;54.152;19.432;2023-03-01T03:29:11;102729.23;;;0.78;71.02
66742;BME280;53654;54.152;19.432;2023-03-01T03:31:39;102726.39;;;0.80;71.24
66742;BME280;53654;54.152;19.432;2023-03-01T03:34:07;102721.59;;;0.80;71.31
66742;BME280;53654;54.152;19.432;2023-03-01T03:36:35;102723.70;;;0.81;71.10
66742;BME280;53654;54.152;19.432;2023-03-01T03:39:03;102722.29;;;0.80;71.13
66742;BME280;53654;54.152;19.432;2023-03-01T03:41:34;102720.47;;;0.78;71.04
66742;BME280;53654;54.152;19.432;2023-03-01T03:44:03;102717.05;;;0.79;71.21
66742;BME280;53654;54.152;19.432;2023-03-01T03:46:31;102712.98;;;0.80;71.37
66742;BME280;53654;54.152;19.432;2023-03-01T03:48:59;102711.48;;;0.80;71.37
66742;BME280;53654;54.152;19.432;2023-03-01T03:51:27;102713.18;;;0.83;71.35
66742;BME280;53654;54.152;19.432;2023-03-01T03:53:55;102711.71;;;0.84;71.26
66742;BME280;53654;54.152;19.432;2023-03-01T03:56:23;102710.64;;;0.83;71.24
66742;BME280;53654;54.152;19.432;2023-03-01T03:58:55;102712.74;;;0.84;71.38
66742;BME280;53654;54.152;19.432;2023-03-01T04:01:23;102713.98;;;0.85;71.48
66742;BME280;53654;54.152;19.432;2023-03-01T04:03:52;102711.19;;;0.87;71.31
66742;BME280;53654;54.152;19.432;2023-03-01T04:06:22;102711.45;;;0.85;71.45
66742;BME280;53654;54.152;19.432;2023-03-01T04:08:50;102708.54;;;0.85;71.54
66742;BME280;53654;54.152;19.432;2023-03-01T04:11:18;102702.73;;;0.86;71.54
66742;BME280;53654;54.152;19.432;2023-03-01T04:13:58;102702.58;;;0.86;71.51
66742;BME280;53654;54.152;19.432;2023-03-01T04:16:27;102700.35;;;0.86;71.47
66742;BME280;53654;54.152;19.432;2023-03-01T04:18:55;102704.63;;;0.86;71.60
66742;BME280;53654;54.152;19.432;2023-03-01T04:21:24;102705.29;;;0.86;71.54
66742;BME280;53654;54.152;19.432;2023-03-01T04:23:52;102707.27;;;0.84;71.40
66742;BME280;53654;54.152;19.432;2023-03-01T04:26:20;102707.47;;;0.82;71.56
66742;BME280;53654;54.152;19.432;2023-03-01T04:28:48;102703.61;;;0.81;71.60
66742;BME280;53654;54.152;19.432;2023-03-01T04:31:19;102700.95;;;0.80;71.78
66742;BME280;53654;54.152;19.432;2023-03-01T04:33:52;102703.52;;;0.79;71.84
66742;BME280;53654;54.152;19.432;2023-03-01T04:36:25;102703.38;;;0.80;71.87
66742;BME280;53654;54.152;19.432;2023-03-01T04:38:54;102700.33;;;0.80;72.07
66742;BME280;53654;54.152;19.432;2023-03-01T04:41:24;102700.52;;;0.83;72.14
66742;BME280;53654;54.152;19.432;2023-03-01T04:43:52;102700.10;;;0.85;72.07
66742;BME280;53654;54.152;19.432;2023-03-01T04:46:21;102706.69;;;0.86;72.01
66742;BME280;53654;54.152;19.432;2023-03-01T04:48:50;102704.29;;;0.86;72.05
66742;BME280;53654;54.152;19.432;2023-03-01T04:51:18;102703.48;;;0.87;72.29
66742;BME280;53654;54.152;19.432;2023-03-01T04:53:46;102701.46;;;0.87;72.23
66742;BME280;53654;54.152;19.432;2023-03-01T04:56:15;102700.13;;;0.88;72.12
66742;BME280;53654;54.152;19.432;2023-03-01T04:58:46;102696.58;;;0.89;72.29
66742;BME280;53654;54.152;19.432;2023-03-01T05:01:18;102694.48;;;0.91;72.44
66742;BME280;53654;54.152;19.432;2023-03-01T05:03:51;102690.45;;;0.93;72.37
66742;BME280;53654;54.152;19.432;2023-03-01T05:06:20;102696.39;;;0.94;72.33
66742;BME280;53654;54.152;19.432;2023-03-01T05:08:49;102695.12;;;0.96;72.37
66742;BME280;53654;54.152;19.432;2023-03-01T05:11:17;102700.38;;;0.98;72.30
66742;BME280;53654;54.152;19.432;2023-03-01T05:13:45;102700.30;;;1.00;72.55
66742;BME280;53654;54.152;19.432;2023-03-01T05:16:13;102692.56;;;1.03;72.49
66742;BME280;53654;54.152;19.432;2023-03-01T05:18:41;102685.23;;;1.04;72.33
66742;BME280;53654;54.152;19.432;2023-03-01T05:21:12;102679.16;;;1.06;72.48
66742;BME280;53654;54.152;19.432;2023-03-01T05:23:44;102677.35;;;1.07;72.17
66742;BME280;53654;54.152;19.432;2023-03-01T05:26:13;102673.50;;;1.08;72.28
66742;BME280;53654;54.152;19.432;2023-03-01T05:29:01;102669.52;;;1.08;72.20
66742;BME280;53654;54.152;19.432;2023-03-01T05:31:29;102668.16;;;1.08;72.16
66742;BME280;53654;54.152;19.432;2023-03-01T05:33:58;102665.48;;;1.06;72.07
66742;BME280;53654;54.152;19.432;2023-03-01T05:36:27;102665.92;;;1.05;72.13
66742;BME280;53654;54.152;19.432;2023-03-01T05:38:55;102668.63;;;1.05;71.97
66742;BME280;53654;54.152;19.432;2023-03-01T05:41:23;102671.23;;;1.05;71.86
66742;BME280;53654;54.152;19.432;2023-03-01T05:43:51;102672.16;;;1.06;71.94
66742;BME280;53654;54.152;19.432;2023-03-01T05:46:20;102678.56;;;1.07;72.25
66742;BME280;53654;54.152;19.432;2023-03-01T05:48:48;102684.91;;;1.07;72.17
66742;BME280;53654;54.152;19.432;2023-03-01T05:51:16;102689.55;;;1.07;71.99
66742;BME280;53654;54.152;19.432;2023-03-01T05:53:45;102689.03;;;1.07;72.07
66742;BME280;53654;54.152;19.432;2023-03-01T05:56:13;102685.77;;;1.07;72.07
66742;BME280;53654;54.152;19.432;2023-03-01T05:58:41;102685.48;;;1.08;72.13
66742;BME280;53654;54.152;19.432;2023-03-01T06:01:12;102688.83;;;1.09;72.17
66742;BME280;53654;54.152;19.432;2023-03-01T06:03:41;102692.67;;;1.10;72.12
66742;BME280;53654;54.152;19.432;2023-03-01T06:06:10;102687.25;;;1.11;72.04
66742;BME280;53654;54.152;19.432;2023-03-01T06:08:38;102690.38;;;1.15;71.93
66742;BME280;53654;54.152;19.432;2023-03-01T06:11:06;102689.21;;;1.18;71.86
66742;BME280;53654;54.152;19.432;2023-03-01T06:13:35;102696.45;;;1.21;71.91
66742;BME280;53654;54.152;19.432;2023-03-01T06:16:05;102692.59;;;1.22;71.84
66742;BME280;53654;54.152;19.432;2023-03-01T06:18:34;102693.66;;;1.23;71.78
66742;BME280;53654;54.152;19.432;2023-03-01T06:21:03;102684.33;;;1.25;71.81
66742;BME280;53654;54.152;19.432;2023-03-01T06:23:32;102686.45;;;1.26;71.69
66742;BME280;53654;54.152;19.432;2023-03-01T06:26:05;102694.91;;;1.27;71.66
66742;BME280;53654;54.152;19.432;2023-03-01T06:28:34;102696.73;;;1.26;71.81
66742;BME280;53654;54.152;19.432;2023-03-01T06:31:02;102689.86;;;1.26;71.72
66742;BME280;53654;54.152;19.432;2023-03-01T06:33:31;102691.74;;;1.26;71.70
66742;BME280;53654;54.152;19.432;2023-03-01T06:35:59;102699.80;;;1.25;71.57
66742;BME280;53654;54.152;19.432;2023-03-01T06:38:27;102707.91;;;1.26;71.56
66742;BME280;53654;54.152;19.432;2023-03-01T06:40:56;102704.95;;;1.25;71.90
66742;BME280;53654;54.152;19.432;2023-03-01T06:43:24;102709.18;;;1.30;71.85
66742;BME280;53654;54.152;19.432;2023-03-01T06:45:52;102716.41;;;1.33;71.79
66742;BME280;53654;54.152;19.432;2023-03-01T06:48:20;102722.48;;;1.36;71.76
66742;BME280;53654;54.152;19.432;2023-03-01T06:50:48;102725.50;;;1.41;71.81
66742;BME280;53654;54.152;19.432;2023-03-01T06:53:17;102723.48;;;1.44;71.62
66742;BME280;53654;54.152;19.432;2023-03-01T06:55:45;102722.40;;;1.49;71.48
66742;BME280;53654;54.152;19.432;2023-03-01T06:58:13;102727.64;;;1.53;71.53
66742;BME280;53654;54.152;19.432;2023-03-01T07:00:41;102724.17;;;1.59;71.53
66742;BME280;53654;54.152;19.432;2023-03-01T07:03:10;102723.47;;;1.65;71.28
66742;BME280;53654;54.152;19.432;2023-03-01T07:05:39;102713.06;;;1.69;71.09
66742;BME280;53654;54.152;19.432;2023-03-01T07:08:07;102710.89;;;1.73;71.00
66742;BME280;53654;54.152;19.432;2023-03-01T07:10:35;102716.59;;;1.79;70.88
66742;BME280;53654;54.152;19.432;2023-03-01T07:13:03;102715.40;;;1.85;70.66
66742;BME280;53654;54.152;19.432;2023-03-01T07:15:31;102711.34;;;1.89;70.70
66742;BME280;53654;54.152;19.432;2023-03-01T07:18:00;102708.58;;;1.92;70.66
66742;BME280;53654;54.152;19.432;2023-03-01T07:20:28;102708.52;;;1.97;70.44
66742;BME280;53654;54.152;19.432;2023-03-01T07:22:56;102707.96;;;1.99;70.53
66742;BME280;53654;54.152;19.432;2023-03-01T07:25:26;102713.67;;;2.03;70.48
66742;BME280;53654;54.152;19.432;2023-03-01T07:27:54;102718.54;;;2.07;70.59
66742;BME280;53654;54.152;19.432;2023-03-01T07:30:23;102726.63;;;2.12;70.61
66742;BME280;53654;54.152;19.432;2023-03-01T07:32:55;102731.53;;;2.17;70.34
66742;BME280;53654;54.152;19.432;2023-03-01T07:35:25;102736.50;;;2.19;70.19
66742;BME280;53654;54.152;19.432;2023-03-01T07:37:53;102728.77;;;2.22;69.99
66742;BME280;53654;54.152;19.432;2023-03-01T07:40:21;102730.48;;;2.25;69.95
66742;BME280;53654;54.152;19.432;2023-03-01T07:42:55;102729.93;;;2.28;69.94
66742;BME280;53654;54.152;19.432;2023-03-01T07:45:25;102737.05;;;2.29;70.13
66742;BME280;53654;54.152;19.432;2023-03-01T07:47:54;102739.55;;;2.31;69.92
66742;BME280;53654;54.152;19.432;2023-03-01T07:50:23;102743.71;;;2.34;69.66
66742;BME280;53654;54.152;19.432;2023-03-01T07:52:51;102739.91;;;2.37;69.88
66742;BME280;53654;54.152;19.432;2023-03-01T07:55:19;102735.16;;;2.41;69.71
66742;BME280;53654;54.152;19.432;2023-03-01T07:57:48;102733.13;;;2.45;69.69
66742;BME280;53654;54.152;19.432;2023-03-01T08:00:16;102719.80;;;2.47;69.60
66742;BME280;53654;54.152;19.432;2023-03-01T08:02:45;102721.69;;;2.50;69.76
66742;BME280;53654;54.152;19.432;2023-03-01T08:05:13;102724.96;;;2.50;69.74
66742;BME280;53654;54.152;19.432;2023-03-01T08:07:41;102725.48;;;2.50;69.76
66742;BME280;53654;54.152;19.432;2023-03-01T08:10:10;102732.30;;;2.49;69.60
66742;BME280;53654;54.152;19.432;2023-03-01T08:12:38;102729.20;;;2.49;69.87
66742;BME280;53654;54.152;19.432;2023-03-01T08:15:07;102721.75;;;2.51;69.92
66742;BME280;53654;54.152;19.432;2023-03-01T08:17:35;102719.42;;;2.56;70.22
66742;BME280;53654;54.152;19.432;2023-03-01T08:20:04;102720.14;;;2.59;70.35
66742;BME280;53654;54.152;19.432;2023-03-01T08:22:34;102714.48;;;2.63;70.13
66742;BME280;53654;54.152;19.432;2023-03-01T08:25:03;102716.25;;;2.64;69.87
66742;BME280;53654;54.152;19.432;2023-03-01T08:27:31;102712.94;;;2.63;69.88
66742;BME280;53654;54.152;19.432;2023-03-01T08:29:59;102709.73;;;2.64;69.95
66742;BME280;53654;54.152;19.432;2023-03-01T08:32:27;102707.35;;;2.65;69.99
66742;BME280;53654;54.152;19.432;2023-03-01T08:34:56;102702.38;;;2.65;70.27
66742;BME280;53654;54.152;19.432;2023-03-01T08:37:24;102706.34;;;2.68;70.43
66742;BME280;53654;54.152;19.432;2023-03-01T08:39:53;102702.77;;;2.75;70.65
66742;BME280;53654;54.152;19.432;2023-03-01T08:42:22;102701.60;;;2.83;70.82
66742;BME280;53654;54.152;19.432;2023-03-01T08:44:50;102709.67;;;2.88;70.50
66742;BME280;53654;54.152;19.432;2023-03-01T08:47:18;102709.91;;;2.86;70.51
66742;BME280;53654;54.152;19.432;2023-03-01T08:49:46;102706.52;;;2.87;70.89
66742;BME280;53654;54.152;19.432;2023-03-01T08:52:16;102709.59;;;2.93;70.95
66742;BME280;53654;54.152;19.432;2023-03-01T08:54:44;102710.05;;;2.99;70.60
66742;BME280;53654;54.152;19.432;2023-03-01T08:57:12;102709.15;;;3.02;70.35
66742;BME280;53654;54.152;19.432;2023-03-01T08:59:40;102704.59;;;3.00;70.41
66742;BME280;53654;54.152;19.432;2023-03-01T09:02:14;102710.56;;;3.02;70.56
66742;BME280;53654;54.152;19.432;2023-03-01T09:04:43;102709.12;;;3.01;70.51
66742;BME280;53654;54.152;19.432;2023-03-01T09:07:12;102706.70;;;2.98;70.57
66742;BME280;53654;54.152;19.432;2023-03-01T09:09:40;102714.14;;;2.98;70.56
66742;BME280;53654;54.152;19.432;2023-03-01T09:12:08;102711.23;;;3.02;70.79
66742;BME280;53654;54.152;19.432;2023-03-01T09:14:36;102708.88;;;3.06;70.80
66742;BME280;53654;54.152;19.432;2023-03-01T09:17:06;102705.27;;;3.09;70.90
66742;BME280;53654;54.152;19.432;2023-03-01T09:19:34;102707.82;;;3.12;70.72
66742;BME280;53654;54.152;19.432;2023-03-01T09:22:04;102708.09;;;3.14;71.08
66742;BME280;53654;54.152;19.432;2023-03-01T09:24:32;102705.30;;;3.19;71.50
66742;BME280;53654;54.152;19.432;2023-03-01T09:27:00;102701.42;;;3.28;71.25
66742;BME280;53654;54.152;19.432;2023-03-01T09:29:29;102702.88;;;3.29;71.04
66742;BME280;53654;54.152;19.432;2023-03-01T09:31:57;102706.50;;;3.29;71.00
66742;BME280;53654;54.152;19.432;2023-03-01T09:34:26;102701.42;;;3.31;71.34
66742;BME280;53654;54.152;19.432;2023-03-01T09:36:54;102698.46;;;3.34;71.27
66742;BME280;53654;54.152;19.432;2023-03-01T09:39:22;102704.49;;;3.40;71.38
66742;BME280;53654;54.152;19.432;2023-03-01T09:44:36;102703.16;;;3.48;70.94
66742;BME280;53654;54.152;19.432;2023-03-01T09:47:16;102701.27;;;3.51;71.44
66742;BME280;53654;54.152;19.432;2023-03-01T09:50:09;102699.55;;;3.59;71.09
66742;BME280;53654;54.152;19.432;2023-03-01T09:55:14;102700.85;;;3.64;71.18
66742;BME280;53654;54.152;19.432;2023-03-01T09:57:50;102693.69;;;3.69;71.64
66742;BME280;53654;54.152;19.432;2023-03-01T10:00:32;102696.91;;;3.78;71.46
66742;BME280;53654;54.152;19.432;2023-03-01T10:03:26;102697.75;;;3.84;71.77
66742;BME280;53654;54.152;19.432;2023-03-01T10:08:56;102695.27;;;3.96;71.95
66742;BME280;53654;54.152;19.432;2023-03-01T10:11:33;102688.41;;;4.01;72.09
66742;BME280;53654;54.152;19.432;2023-03-01T10:16:52;102691.20;;;4.12;72.40
66742;BME280;53654;54.152;19.432;2023-03-01T10:19:31;102691.48;;;4.14;72.29
66742;BME280;53654;54.152;19.432;2023-03-01T10:22:27;102692.41;;;4.16;72.02
66742;BME280;53654;54.152;19.432;2023-03-01T10:25:02;102692.84;;;4.17;72.05
66742;BME280;53654;54.152;19.432;2023-03-01T10:27:43;102696.87;;;4.26;72.12
66742;BME280;53654;54.152;19.432;2023-03-01T10:32:51;102690.73;;;4.35;72.45
66742;BME280;53654;54.152;19.432;2023-03-01T10:35:26;102692.58;;;4.41;72.42
66742;BME280;53654;54.152;19.432;2023-03-01T10:38:10;102694.48;;;4.48;72.54
66742;BME280;53654;54.152;19.432;2023-03-01T10:40:56;102695.27;;;4.54;72.66
66742;BME280;53654;54.152;19.432;2023-03-01T10:43:26;102691.70;;;4.59;72.67
66742;BME280;53654;54.152;19.432;2023-03-01T10:45:56;102693.15;;;4.61;72.37
66742;BME280;53654;54.152;19.432;2023-03-01T10:48:25;102689.45;;;4.59;72.59
66742;BME280;53654;54.152;19.432;2023-03-01T10:56:11;102689.11;;;4.59;73.13
66742;BME280;53654;54.152;19.432;2023-03-01T10:59:00;102689.63;;;4.55;73.14
66742;BME280;53654;54.152;19.432;2023-03-01T11:01:35;102688.20;;;4.54;73.25
66742;BME280;53654;54.152;19.432;2023-03-01T11:06:39;102676.79;;;4.61;72.99
66742;BME280;53654;54.152;19.432;2023-03-01T11:09:22;102680.49;;;4.67;72.75
66742;BME280;53654;54.152;19.432;2023-03-01T11:11:58;102680.14;;;4.70;72.73
66742;BME280;53654;54.152;19.432;2023-03-01T11:14:33;102679.57;;;4.73;72.52
66742;BME280;53654;54.152;19.432;2023-03-01T11:19:32;102676.99;;;4.73;72.44
66742;BME280;53654;54.152;19.432;2023-03-01T11:22:18;102669.48;;;4.75;72.58
66742;BME280;53654;54.152;19.432;2023-03-01T11:24:51;102666.54;;;4.75;72.54
66742;BME280;53654;54.152;19.432;2023-03-01T11:27:41;102664.23;;;4.74;72.62
66742;BME280;53654;54.152;19.432;2023-03-01T11:30:24;102662.36;;;4.78;72.34
66742;BME280;53654;54.152;19.432;2023-03-01T11:33:05;102658.15;;;4.81;72.49
66742;BME280;53654;54.152;19.432;2023-03-01T11:35:47;102652.86;;;4.87;72.29
66742;BME280;53654;54.152;19.432;2023-03-01T11:38:25;102652.24;;;4.88;72.38
66742;BME280;53654;54.152;19.432;2023-03-01T11:51:43;102638.98;;;5.09;71.47
66742;BME280;53654;54.152;19.432;2023-03-01T12:09:04;102643.02;;;5.37;71.26
66742;BME280;53654;54.152;19.432;2023-03-01T12:15:47;102647.05;;;5.42;70.50
66742;BME280;53654;54.152;19.432;2023-03-01T12:20:40;102645.54;;;5.43;70.60
66742;BME280;53654;54.152;19.432;2023-03-01T12:23:24;102645.80;;;5.45;70.55
66742;BME280;53654;54.152;19.432;2023-03-01T12:38:50;102633.13;;;5.57;70.47
66742;BME280;53654;54.152;19.432;2023-03-01T12:44:44;102623.20;;;5.39;70.81
66742;BME280;53654;54.152;19.432;2023-03-01T12:47:13;102624.92;;;5.27;71.23
66742;BME280;53654;54.152;19.432;2023-03-01T12:49:49;102623.21;;;5.20;71.35
66742;BME280;53654;54.152;19.432;2023-03-01T12:54:53;102619.27;;;5.13;71.98
66742;BME280;53654;54.152;19.432;2023-03-01T12:57:27;102617.45;;;5.15;71.92
66742;BME280;53654;54.152;19.432;2023-03-01T13:00:24;102615.42;;;5.16;71.92
66742;BME280;53654;54.152;19.432;2023-03-01T13:09:17;102612.20;;;5.25;72.21
66742;BME280;53654;54.152;19.432;2023-03-01T13:11:47;102606.23;;;5.31;72.04
66742;BME280;53654;54.152;19.432;2023-03-01T13:16:51;102593.48;;;5.49;72.02
66742;BME280;53654;54.152;19.432;2023-03-01T13:19:24;102594.75;;;5.59;71.78
66742;BME280;53654;54.152;19.432;2023-03-01T13:21:54;102589.37;;;5.67;71.36
66742;BME280;53654;54.152;19.432;2023-03-01T13:24:38;102590.90;;;5.74;71.02
66742;BME280;53654;54.152;19.432;2023-03-01T13:29:49;102595.30;;;5.85;70.50
66742;BME280;53654;54.152;19.432;2023-03-01T13:37:43;102577.52;;;5.94;70.42
66742;BME280;53654;54.152;19.432;2023-03-01T13:42:54;102578.98;;;6.09;70.41
66742;BME280;53654;54.152;19.432;2023-03-01T13:45:38;102578.02;;;6.16;69.95
66742;BME280;53654;54.152;19.432;2023-03-01T13:48:15;102578.80;;;6.18;69.54
66742;BME280;53654;54.152;19.432;2023-03-01T13:50:53;102573.55;;;6.21;69.42
66742;BME280;53654;54.152;19.432;2023-03-01T13:53:25;102575.58;;;6.24;69.02
66742;BME280;53654;54.152;19.432;2023-03-01T13:56:15;102570.34;;;6.28;68.80
66742;BME280;53654;54.152;19.432;2023-03-01T13:58:52;102567.11;;;6.25;69.03
66742;BME280;53654;54.152;19.432;2023-03-01T14:01:29;102568.93;;;6.18;69.42
66742;BME280;53654;54.152;19.432;2023-03-01T14:03:59;102570.61;;;6.08;69.70
66742;BME280;53654;54.152;19.432;2023-03-01T14:06:30;102568.73;;;6.04;70.01
66742;BME280;53654;54.152;19.432;2023-03-01T14:17:10;102574.55;;;5.93;70.42
66742;BME280;53654;54.152;19.432;2023-03-01T14:19:43;102573.47;;;5.84;70.65
66742;BME280;53654;54.152;19.432;2023-03-01T14:22:26;102573.77;;;5.83;70.90
66742;BME280;53654;54.152;19.432;2023-03-01T14:24:59;102567.90;;;5.79;71.18
66742;BME280;53654;54.152;19.432;2023-03-01T14:27:39;102563.83;;;5.81;71.25
66742;BME280;53654;54.152;19.432;2023-03-01T14:30:14;102561.58;;;5.86;71.41
66742;BME280;53654;54.152;19.432;2023-03-01T14:33:02;102556.80;;;5.91;71.24
66742;BME280;53654;54.152;19.432;2023-03-01T14:35:33;102551.23;;;5.95;71.28
66742;BME280;53654;54.152;19.432;2023-03-01T14:38:02;102545.47;;;5.98;71.14
66742;BME280;53654;54.152;19.432;2023-03-01T14:40:35;102539.79;;;6.04;71.12
66742;BME280;53654;54.152;19.432;2023-03-01T14:43:12;102533.16;;;6.07;70.91
66742;BME280;53654;54.152;19.432;2023-03-01T14:45:49;102536.73;;;6.09;70.97
66742;BME280;53654;54.152;19.432;2023-03-01T14:48:18;102538.02;;;6.12;70.96
66742;BME280;53654;54.152;19.432;2023-03-01T14:50:47;102540.02;;;6.14;70.83
66742;BME280;53654;54.152;19.432;2023-03-01T14:53:22;102544.13;;;6.18;70.60
66742;BME280;53654;54.152;19.432;2023-03-01T14:55:56;102544.55;;;6.20;70.48
66742;BME280;53654;54.152;19.432;2023-03-01T14:58:28;102540.27;;;6.21;70.58
66742;BME280;53654;54.152;19.432;2023-03-01T15:00:58;102538.23;;;6.22;70.38
66742;BME280;53654;54.152;19.432;2023-03-01T15:03:37;102535.32;;;6.23;70.45
66742;BME280;53654;54.152;19.432;2023-03-01T15:06:08;102534.45;;;6.23;70.48
66742;BME280;53654;54.152;19.432;2023-03-01T15:08:37;102534.02;;;6.25;70.49